KBVY

Beverly Regional Airport

Beverly, Massachusetts, USA
METAR KBVY 241327Z 16005KT 10SM BKN017 15/12 A3011 RMK AO2 T01500117
Observed Flight Rules
May-24 @ 13:27 UTC (27 minutes ago) Marginal Visual Flight Rules
Wind Visibility Clouds
160° at 5 knots 10 miles
  • Broken at 1,700' AGL
Temperatures Readings
Current 15°C / 59°F
Dewpoint 12°C / 54°F
Humidity 82%
Altimeter 30.11" Hg
Pressure 1020 hPa
Elevation 28
METAR KBVY 241327Z 16005KT 10SM BKN017 15/12 A3011 RMK AO2 T01500117
Observed Flight Rules
May-24 @ 13:27 UTC
(27 minutes ago)
MVFR
Wind Visibility
160° at 5 knots 10 miles
Clouds
  • Broken at 1,700' AGL
Temperature Dewpoint
15°C / 59°F 12°C / 54°F
Humidity Altimeter Pressure
82% 30.11" Hg 1020 hPa